createdAt,value
2023-12-28T00:00:11.410Z,8.59
2023-12-28T00:01:11.557Z,8.70
2023-12-28T00:02:11.566Z,8.59
2023-12-28T00:03:11.722Z,8.59
2023-12-28T00:04:11.743Z,8.70
2023-12-28T00:05:11.872Z,8.49
2023-12-28T00:06:11.887Z,8.54
2023-12-28T00:07:11.900Z,8.49
2023-12-28T00:08:11.981Z,8.49
2023-12-28T00:09:12.649Z,8.22
2023-12-28T00:10:12.110Z,8.43
2023-12-28T00:11:12.198Z,8.59
2023-12-28T00:12:12.310Z,8.59
2023-12-28T00:13:12.397Z,8.43
2023-12-28T00:14:12.453Z,9.13
2023-12-28T00:15:12.666Z,8.54
2023-12-28T00:16:12.597Z,8.27
2023-12-28T00:17:12.665Z,8.33
2023-12-28T00:18:13.056Z,8.49
2023-12-28T00:19:12.888Z,8.33
2023-12-28T00:20:13.860Z,8.43
2023-12-28T00:21:12.965Z,8.27
2023-12-28T00:22:13.062Z,8.22
2023-12-28T00:23:13.113Z,8.33
2023-12-28T00:24:13.207Z,8.27
2023-12-28T00:25:13.296Z,8.27
2023-12-28T00:26:13.409Z,8.27
2023-12-28T00:27:13.444Z,8.22
2023-12-28T00:28:13.527Z,8.11
2023-12-28T00:29:13.598Z,8.00
2023-12-28T00:30:13.785Z,8.06
2023-12-28T00:31:13.891Z,8.11
2023-12-28T00:32:13.860Z,8.11
2023-12-28T00:33:13.968Z,8.06
2023-12-28T00:34:14.139Z,8.06
2023-12-28T00:35:14.122Z,7.95
2023-12-28T00:36:14.229Z,8.00
2023-12-28T00:37:14.244Z,7.84
2023-12-28T00:38:14.312Z,7.90
2023-12-28T00:39:14.407Z,7.95
2023-12-28T00:40:14.502Z,7.79
2023-12-28T00:41:14.563Z,7.73
2023-12-28T00:42:14.674Z,7.79
2023-12-28T00:43:14.730Z,7.95
2023-12-28T00:44:14.851Z,7.79
2023-12-28T00:45:14.930Z,7.90
2023-12-28T00:46:15.014Z,7.79
2023-12-28T00:47:15.083Z,7.73
2023-12-28T00:48:15.403Z,7.68
2023-12-28T00:49:15.320Z,7.79
2023-12-28T00:50:15.335Z,7.73
2023-12-28T00:51:15.456Z,7.84
2023-12-28T00:52:16.353Z,7.73
2023-12-28T00:53:15.594Z,7.73
2023-12-28T00:54:15.683Z,7.79
2023-12-28T00:55:15.732Z,7.84
2023-12-28T00:56:15.842Z,7.73
2023-12-28T00:57:15.905Z,7.90
2023-12-28T00:58:15.992Z,7.73
2023-12-28T00:59:16.068Z,7.79
2023-12-28T01:00:16.203Z,7.63
2023-12-28T01:01:16.317Z,7.68
2023-12-28T01:02:16.315Z,7.79
2023-12-28T01:03:16.578Z,7.63
2023-12-28T01:04:16.592Z,7.63
2023-12-28T01:05:16.601Z,7.95
2023-12-28T01:06:16.717Z,7.57
2023-12-28T01:07:16.833Z,7.63
2023-12-28T01:08:16.856Z,7.63
2023-12-28T01:09:16.971Z,7.63
2023-12-28T01:10:17.001Z,7.63
2023-12-28T01:11:17.094Z,7.47
2023-12-28T01:12:17.197Z,7.52
2023-12-28T01:13:17.251Z,7.52
2023-12-28T01:14:17.325Z,7.57
2023-12-28T01:15:17.475Z,7.47
2023-12-28T01:16:17.464Z,7.52
2023-12-28T01:17:17.537Z,7.52
2023-12-28T01:18:17.716Z,7.47
2023-12-28T01:19:17.783Z,7.41
2023-12-28T01:20:17.796Z,7.52
2023-12-28T01:21:17.870Z,7.52
2023-12-28T01:22:17.945Z,7.47
2023-12-28T01:23:18.038Z,7.04
2023-12-28T01:24:18.094Z,7.41
2023-12-28T01:25:18.195Z,7.47
2023-12-28T01:26:18.260Z,7.36
2023-12-28T01:27:18.393Z,9.29
2023-12-28T01:28:18.430Z,7.41
2023-12-28T01:29:18.511Z,7.30
2023-12-28T01:30:18.671Z,7.30
2023-12-28T01:31:18.793Z,7.36
2023-12-28T01:32:18.800Z,6.98
2023-12-28T01:33:18.942Z,7.30
2023-12-28T01:34:18.990Z,7.36
2023-12-28T01:35:19.004Z,7.30
2023-12-28T01:36:19.078Z,7.20
2023-12-28T01:37:19.128Z,7.25
2023-12-28T01:38:19.210Z,7.25
2023-12-28T01:39:19.328Z,7.20
2023-12-28T01:40:19.368Z,7.14
2023-12-28T01:41:19.453Z,7.14
2023-12-28T01:42:19.530Z,7.14
2023-12-28T01:43:19.674Z,7.14
2023-12-28T01:44:20.696Z,7.09
2023-12-28T01:45:19.808Z,8.11
2023-12-28T01:46:19.911Z,7.09
2023-12-28T01:47:19.924Z,6.50
2023-12-28T01:48:20.071Z,6.98
2023-12-28T01:49:20.142Z,7.04
2023-12-28T01:50:20.156Z,6.93
2023-12-28T01:51:20.299Z,6.93
2023-12-28T01:52:20.380Z,6.98
2023-12-28T01:53:20.409Z,6.93
2023-12-28T01:54:20.509Z,6.93
2023-12-28T01:55:20.630Z,6.82
2023-12-28T01:56:20.621Z,6.88
2023-12-28T01:57:20.748Z,6.82
2023-12-28T01:58:20.842Z,6.82
2023-12-28T01:59:20.905Z,7.36
2023-12-28T02:00:21.012Z,7.41
2023-12-28T02:01:21.149Z,6.82
2023-12-28T02:02:21.141Z,6.77
2023-12-28T02:03:21.287Z,6.88
2023-12-28T02:04:21.362Z,6.82
2023-12-28T02:05:21.411Z,6.45
2023-12-28T02:06:21.530Z,7.09
2023-12-28T02:07:21.580Z,6.82
2023-12-28T02:08:21.627Z,6.82
2023-12-28T02:09:21.754Z,6.77
2023-12-28T02:10:21.778Z,6.71
2023-12-28T02:11:21.871Z,7.36
2023-12-28T02:12:22.046Z,6.77
2023-12-28T02:13:22.047Z,6.77
2023-12-28T02:14:22.099Z,6.77
2023-12-28T02:15:22.257Z,6.71
2023-12-28T02:16:22.280Z,6.77
2023-12-28T02:17:22.420Z,6.66
2023-12-28T02:18:22.531Z,6.71
2023-12-28T02:19:23.256Z,6.77
2023-12-28T02:20:22.601Z,6.77
2023-12-28T02:21:22.720Z,6.77
2023-12-28T02:22:22.785Z,6.71
2023-12-28T02:23:22.848Z,6.77
2023-12-28T02:24:23.015Z,6.71
2023-12-28T02:25:23.010Z,6.77
2023-12-28T02:26:23.113Z,6.77
2023-12-28T02:27:23.166Z,6.77
2023-12-28T02:28:23.215Z,6.66
2023-12-28T02:29:23.314Z,6.71
2023-12-28T02:30:23.797Z,6.77
2023-12-28T02:31:23.571Z,6.77
2023-12-28T02:32:23.519Z,6.71
2023-12-28T02:33:23.748Z,6.71
2023-12-28T02:34:23.788Z,6.77
2023-12-28T02:35:23.793Z,6.71
2023-12-28T02:36:23.875Z,6.71
2023-12-28T02:37:23.930Z,6.71
2023-12-28T02:38:24.021Z,6.77
2023-12-28T02:39:24.168Z,6.66
2023-12-28T02:40:24.174Z,6.77
2023-12-28T02:41:24.246Z,6.71
2023-12-28T02:42:24.362Z,6.77
2023-12-28T02:43:24.429Z,6.66
2023-12-28T02:44:24.499Z,6.71
2023-12-28T02:45:24.633Z,6.71
2023-12-28T02:46:24.693Z,6.66
2023-12-28T02:47:24.748Z,6.71
2023-12-28T02:48:25.023Z,6.71
2023-12-28T02:49:25.817Z,6.66
2023-12-28T02:50:24.994Z,6.71
2023-12-28T02:51:25.073Z,6.77
2023-12-28T02:52:25.124Z,6.61
2023-12-28T02:53:25.190Z,6.71
2023-12-28T02:54:25.320Z,6.71
2023-12-28T02:55:25.357Z,6.77
2023-12-28T02:56:25.456Z,6.71
2023-12-28T02:57:25.535Z,6.71
2023-12-28T02:58:25.590Z,6.71
2023-12-28T02:59:25.652Z,6.71
2023-12-28T03:00:25.747Z,6.77
2023-12-28T03:01:25.894Z,6.77
2023-12-28T03:02:25.950Z,6.77
2023-12-28T03:03:26.030Z,6.71
2023-12-28T03:04:26.047Z,6.71
2023-12-28T03:05:26.142Z,6.45
2023-12-28T03:06:26.295Z,6.77
2023-12-28T03:07:26.350Z,6.77
2023-12-28T03:08:26.402Z,6.71
2023-12-28T03:09:26.510Z,6.61
2023-12-28T03:10:26.583Z,6.77
2023-12-28T03:11:26.647Z,6.77
2023-12-28T03:12:26.774Z,6.82
2023-12-28T03:13:26.816Z,6.45
2023-12-28T03:14:26.919Z,6.77
2023-12-28T03:15:27.048Z,6.71
2023-12-28T03:16:27.797Z,6.71
2023-12-28T03:17:27.228Z,6.45
2023-12-28T03:18:27.470Z,6.77
2023-12-28T03:19:27.360Z,6.77
2023-12-28T03:20:27.404Z,6.77
2023-12-28T03:21:27.579Z,6.77
2023-12-28T03:22:27.538Z,6.77
2023-12-28T03:23:27.682Z,6.82
2023-12-28T03:24:27.727Z,6.77
2023-12-28T03:25:27.759Z,6.66
2023-12-28T03:26:27.869Z,6.82
2023-12-28T03:27:28.096Z,6.77
2023-12-28T03:28:28.067Z,6.77
2023-12-28T03:29:28.101Z,6.71
2023-12-28T03:30:28.241Z,6.71
2023-12-28T03:31:28.308Z,6.71
2023-12-28T03:32:28.413Z,6.88
2023-12-28T03:33:28.623Z,4.35
2023-12-28T03:34:29.435Z,6.71
2023-12-28T03:35:28.601Z,6.71
2023-12-28T03:36:28.706Z,6.77
2023-12-28T03:37:28.765Z,6.77
2023-12-28T03:38:28.847Z,6.71
2023-12-28T03:39:28.944Z,6.71
2023-12-28T03:40:28.999Z,6.71
2023-12-28T03:41:29.091Z,6.71
2023-12-28T03:42:29.154Z,6.77
2023-12-28T03:43:29.213Z,6.71
2023-12-28T03:44:29.801Z,6.71
2023-12-28T03:45:29.519Z,6.77
2023-12-28T03:46:29.500Z,6.66
2023-12-28T03:47:29.588Z,6.71
2023-12-28T03:48:29.906Z,6.71
2023-12-28T03:49:29.797Z,6.12
2023-12-28T03:50:29.775Z,5.75
2023-12-28T03:51:29.958Z,6.71
2023-12-28T03:52:29.962Z,6.71
2023-12-28T03:53:29.993Z,6.71
2023-12-28T03:54:30.100Z,6.71
2023-12-28T03:55:30.146Z,6.77
2023-12-28T03:56:30.235Z,6.71
2023-12-28T03:57:30.349Z,6.71
2023-12-28T03:58:30.418Z,6.71
2023-12-28T03:59:30.483Z,6.77
2023-12-28T04:00:31.343Z,6.77
2023-12-28T04:01:30.706Z,6.77
2023-12-28T04:02:30.718Z,6.77
2023-12-28T04:03:30.865Z,6.71
2023-12-28T04:04:31.097Z,6.77
2023-12-28T04:05:31.041Z,6.71
2023-12-28T04:06:31.105Z,6.71
2023-12-28T04:07:31.189Z,6.66
2023-12-28T04:08:31.251Z,6.71
2023-12-28T04:09:31.372Z,6.77
2023-12-28T04:10:31.422Z,6.71
2023-12-28T04:11:31.496Z,6.66
2023-12-28T04:12:31.580Z,6.77
2023-12-28T04:13:31.639Z,6.71
2023-12-28T04:14:31.715Z,6.71
2023-12-28T04:15:31.843Z,6.77
2023-12-28T04:16:31.913Z,6.77
2023-12-28T04:17:32.839Z,6.77
2023-12-28T04:18:32.147Z,6.71
2023-12-28T04:19:32.200Z,6.77
2023-12-28T04:20:32.194Z,6.71
2023-12-28T04:21:32.275Z,6.71
2023-12-28T04:22:32.370Z,6.77
2023-12-28T04:23:32.425Z,6.77
2023-12-28T04:24:32.536Z,6.77
2023-12-28T04:25:32.582Z,6.71
2023-12-28T04:26:32.661Z,6.82
2023-12-28T04:27:32.768Z,6.71
2023-12-28T04:28:32.824Z,9.35
2023-12-28T04:29:32.904Z,6.82
2023-12-28T04:30:33.073Z,6.66
2023-12-28T04:31:33.143Z,6.82
2023-12-28T04:32:33.166Z,6.82
2023-12-28T04:33:33.260Z,6.71
2023-12-28T04:34:33.346Z,6.71
2023-12-28T04:35:33.374Z,6.45
2023-12-28T04:36:33.449Z,6.77
2023-12-28T04:37:33.516Z,6.77
2023-12-28T04:38:33.634Z,6.71
2023-12-28T04:39:33.732Z,6.77
2023-12-28T04:40:33.779Z,6.71
2023-12-28T04:41:33.853Z,6.71
2023-12-28T04:42:33.990Z,6.82
2023-12-28T04:43:34.010Z,6.71
2023-12-28T04:44:34.059Z,6.77
2023-12-28T04:45:34.163Z,6.82
2023-12-28T04:46:34.226Z,6.77
2023-12-28T04:47:34.357Z,6.77
2023-12-28T04:48:34.635Z,6.71
2023-12-28T04:49:34.577Z,6.71
2023-12-28T04:50:35.662Z,6.71
2023-12-28T04:51:34.689Z,6.77
2023-12-28T04:52:34.728Z,6.71
2023-12-28T04:53:35.711Z,6.71
2023-12-28T04:54:34.891Z,6.77
2023-12-28T04:55:34.954Z,6.66
2023-12-28T04:56:35.036Z,6.77
2023-12-28T04:57:35.132Z,6.71
2023-12-28T04:58:35.205Z,6.88
2023-12-28T04:59:35.240Z,6.66
2023-12-28T05:00:35.485Z,6.71
2023-12-28T05:01:35.548Z,6.71
2023-12-28T05:02:35.486Z,6.77
2023-12-28T05:03:35.642Z,6.77
2023-12-28T05:04:35.710Z,6.77
2023-12-28T05:05:35.740Z,6.77
2023-12-28T05:06:35.821Z,6.77
2023-12-28T05:07:35.865Z,6.77
2023-12-28T05:08:35.928Z,6.71
2023-12-28T05:09:36.045Z,6.71
2023-12-28T05:10:36.090Z,6.50
2023-12-28T05:11:36.162Z,6.66
2023-12-28T05:12:43.690Z,6.66
2023-12-28T05:13:36.357Z,6.71
2023-12-28T05:14:36.450Z,6.66
2023-12-28T05:15:36.568Z,6.71
2023-12-28T05:16:36.585Z,6.66
2023-12-28T05:17:36.701Z,6.82
2023-12-28T05:18:36.848Z,6.66
2023-12-28T05:19:36.997Z,6.66
2023-12-28T05:20:36.946Z,6.66
2023-12-28T05:21:37.167Z,6.71
2023-12-28T05:22:37.170Z,6.71
2023-12-28T05:23:37.158Z,6.66
2023-12-28T05:24:37.271Z,6.66
2023-12-28T05:25:37.325Z,6.61
2023-12-28T05:26:37.395Z,6.66
2023-12-28T05:27:37.533Z,6.71
2023-12-28T05:28:37.559Z,6.66
2023-12-28T05:29:37.621Z,6.61
2023-12-28T05:30:37.853Z,6.66
2023-12-28T05:31:38.136Z,6.66
2023-12-28T05:32:37.887Z,6.66
2023-12-28T05:33:38.069Z,6.88
2023-12-28T05:34:38.178Z,6.61
2023-12-28T05:35:38.100Z,6.66
2023-12-28T05:36:38.235Z,6.66
2023-12-28T05:37:38.269Z,6.61
2023-12-28T05:38:38.342Z,5.69
2023-12-28T05:39:38.525Z,6.61
2023-12-28T05:40:38.500Z,6.66
2023-12-28T05:41:38.531Z,6.61
2023-12-28T05:42:39.385Z,6.61
2023-12-28T05:43:38.711Z,6.61
2023-12-28T05:44:38.787Z,6.71
2023-12-28T05:45:38.908Z,6.66
2023-12-28T05:46:38.964Z,6.61
2023-12-28T05:47:39.108Z,6.66
2023-12-28T05:48:39.437Z,6.66
2023-12-28T05:49:39.357Z,6.61
2023-12-28T05:50:39.332Z,6.66
2023-12-28T05:51:39.409Z,6.50
2023-12-28T05:52:39.527Z,6.71
2023-12-28T05:53:39.554Z,6.61
2023-12-28T05:54:49.703Z,6.61
2023-12-28T05:55:39.694Z,6.66
2023-12-28T05:56:39.785Z,6.61
2023-12-28T05:57:39.930Z,6.61
2023-12-28T05:58:39.967Z,6.61
2023-12-28T05:59:40.092Z,6.71
2023-12-28T06:00:40.249Z,6.55
2023-12-28T06:01:40.273Z,4.46
2023-12-28T06:02:40.316Z,6.88
2023-12-28T06:03:40.430Z,6.61
2023-12-28T06:04:40.674Z,6.61
2023-12-28T06:05:40.628Z,6.61
2023-12-28T06:06:40.687Z,6.61
2023-12-28T06:07:40.743Z,5.64
2023-12-28T06:08:40.890Z,6.61
2023-12-28T06:09:41.492Z,6.61
2023-12-28T06:10:40.980Z,6.61
2023-12-28T06:11:41.092Z,6.55
2023-12-28T06:12:41.218Z,6.61
2023-12-28T06:13:41.247Z,6.50
2023-12-28T06:14:41.298Z,6.55
2023-12-28T06:15:41.506Z,6.61
2023-12-28T06:16:41.464Z,6.61
2023-12-28T06:17:41.636Z,6.66
2023-12-28T06:18:41.717Z,6.61
2023-12-28T06:19:41.729Z,6.66
2023-12-28T06:20:41.817Z,6.61
2023-12-28T06:21:41.933Z,6.55
2023-12-28T06:22:41.996Z,6.61
2023-12-28T06:23:42.040Z,6.61
2023-12-28T06:24:42.198Z,6.66
2023-12-28T06:25:42.276Z,6.61
2023-12-28T06:26:42.304Z,6.61
2023-12-28T06:27:42.432Z,6.61
2023-12-28T06:28:42.473Z,6.66
2023-12-28T06:29:42.547Z,6.61
2023-12-28T06:30:42.712Z,6.61
2023-12-28T06:31:42.758Z,9.35
2023-12-28T06:32:43.525Z,6.61
2023-12-28T06:33:43.046Z,6.66
2023-12-28T06:34:43.184Z,6.66
2023-12-28T06:35:43.164Z,6.61
2023-12-28T06:36:43.182Z,6.71
2023-12-28T06:37:43.192Z,6.61
2023-12-28T06:38:43.276Z,6.61
2023-12-28T06:39:44.308Z,6.61
2023-12-28T06:40:43.477Z,6.66
2023-12-28T06:41:43.518Z,6.61
2023-12-28T06:42:43.620Z,6.61
2023-12-28T06:43:43.732Z,6.61
2023-12-28T06:44:43.751Z,6.61
2023-12-28T06:45:43.877Z,6.61
2023-12-28T06:46:43.916Z,6.66
2023-12-28T06:47:44.040Z,6.66
2023-12-28T06:48:44.201Z,6.66
2023-12-28T06:49:44.249Z,6.66
2023-12-28T06:50:44.244Z,6.55
2023-12-28T06:51:44.377Z,6.61
2023-12-28T06:52:44.426Z,6.77
2023-12-28T06:53:44.526Z,8.27
2023-12-28T06:54:44.704Z,6.66
2023-12-28T06:55:44.695Z,6.55
2023-12-28T06:56:44.770Z,6.61
2023-12-28T06:57:44.878Z,6.66
2023-12-28T06:58:44.973Z,6.66
2023-12-28T06:59:45.026Z,6.61
2023-12-28T07:00:45.251Z,6.61
2023-12-28T07:01:45.232Z,6.66
2023-12-28T07:02:45.284Z,6.66
2023-12-28T07:03:45.445Z,6.61
2023-12-28T07:04:45.433Z,6.61
2023-12-28T07:05:45.502Z,6.66
2023-12-28T07:06:45.623Z,6.55
2023-12-28T07:07:45.672Z,6.66
2023-12-28T07:08:45.769Z,6.66
2023-12-28T07:09:45.914Z,6.61
2023-12-28T07:10:45.920Z,6.61
2023-12-28T07:11:45.989Z,6.61
2023-12-28T07:12:46.127Z,6.61
2023-12-28T07:13:46.181Z,6.66
2023-12-28T07:14:46.251Z,6.61
2023-12-28T07:15:46.383Z,6.66
2023-12-28T07:16:46.406Z,6.61
2023-12-28T07:17:46.723Z,6.61
2023-12-28T07:18:46.713Z,6.61
2023-12-28T07:19:46.846Z,6.61
2023-12-28T07:20:46.761Z,6.66
2023-12-28T07:21:46.877Z,6.55
2023-12-28T07:22:46.917Z,6.66
2023-12-28T07:23:46.993Z,6.61
2023-12-28T07:24:47.089Z,6.61
2023-12-28T07:25:47.184Z,6.66
2023-12-28T07:26:47.247Z,6.66
2023-12-28T07:27:47.364Z,6.61
2023-12-28T07:28:47.417Z,6.61
2023-12-28T07:29:47.509Z,6.66
2023-12-28T07:30:47.664Z,6.61
2023-12-28T07:31:47.691Z,6.61
2023-12-28T07:32:47.826Z,6.61
2023-12-28T07:33:47.969Z,6.61
2023-12-28T07:34:47.975Z,6.61
2023-12-28T07:35:48.007Z,6.61
2023-12-28T07:36:48.101Z,6.61
2023-12-28T07:37:48.168Z,6.66
2023-12-28T07:38:48.242Z,6.77
2023-12-28T07:39:48.355Z,6.55
2023-12-28T07:40:48.397Z,6.55
2023-12-28T07:41:48.475Z,6.82
2023-12-28T07:42:48.597Z,6.61
2023-12-28T07:43:49.475Z,6.61
2023-12-28T07:44:48.704Z,6.61
2023-12-28T07:45:48.791Z,6.61
2023-12-28T07:46:48.898Z,6.61
2023-12-28T07:47:49.110Z,6.66
2023-12-28T07:48:49.114Z,6.61
2023-12-28T07:49:49.241Z,6.66
2023-12-28T07:50:49.165Z,6.61
2023-12-28T07:51:49.262Z,6.61
2023-12-28T07:52:50.374Z,6.61
2023-12-28T07:53:49.399Z,6.61
2023-12-28T07:54:50.298Z,6.66
2023-12-28T07:55:49.569Z,6.55
2023-12-28T07:56:49.627Z,6.66
2023-12-28T07:57:49.770Z,6.61
2023-12-28T07:58:49.796Z,6.55
2023-12-28T07:59:49.860Z,6.61
2023-12-28T08:00:50.076Z,6.61
2023-12-28T08:01:50.032Z,6.55
2023-12-28T08:02:50.077Z,6.61
2023-12-28T08:03:50.243Z,6.61
2023-12-28T08:04:50.566Z,6.61
2023-12-28T08:05:50.365Z,6.61
2023-12-28T08:06:50.448Z,6.61
2023-12-28T08:07:50.500Z,6.66
2023-12-28T08:08:50.588Z,6.55
2023-12-28T08:09:50.722Z,6.12
2023-12-28T08:10:50.732Z,6.61
2023-12-28T08:11:50.853Z,6.61
2023-12-28T08:12:50.983Z,6.61
2023-12-28T08:13:50.986Z,6.61
2023-12-28T08:14:51.080Z,6.61
2023-12-28T08:15:51.173Z,6.61
2023-12-28T08:16:51.216Z,6.61
2023-12-28T08:17:51.377Z,6.61
2023-12-28T08:18:51.508Z,6.71
2023-12-28T08:19:51.776Z,6.61
2023-12-28T08:20:51.509Z,6.66
2023-12-28T08:21:51.617Z,6.61
2023-12-28T08:23:01.752Z,6.61
2023-12-28T08:23:51.777Z,6.66
2023-12-28T08:24:51.854Z,6.66
2023-12-28T08:25:51.916Z,6.88
2023-12-28T08:26:51.978Z,6.61
2023-12-28T08:27:52.100Z,6.71
2023-12-28T08:28:52.141Z,6.55
2023-12-28T08:29:52.231Z,6.61
2023-12-28T08:30:52.344Z,7.20
2023-12-28T08:31:52.493Z,6.61
2023-12-28T08:32:52.578Z,6.71
2023-12-28T08:33:52.655Z,7.84
2023-12-28T08:34:52.697Z,6.82
2023-12-28T08:35:52.688Z,6.61
2023-12-28T08:36:52.816Z,6.77
2023-12-28T08:37:52.897Z,6.71
2023-12-28T08:38:52.943Z,6.55
2023-12-28T08:39:53.038Z,6.61
2023-12-28T08:40:53.149Z,6.61
2023-12-28T08:41:53.193Z,6.50
2023-12-28T08:42:53.372Z,6.71
2023-12-28T08:43:53.345Z,7.14
2023-12-28T08:44:53.424Z,6.61
2023-12-28T08:45:53.542Z,6.61
2023-12-28T08:46:53.587Z,10.15
2023-12-28T08:47:53.736Z,7.25
2023-12-28T08:48:53.856Z,11.23
2023-12-28T08:49:53.969Z,14.23
2023-12-28T08:50:53.936Z,16.49
2023-12-28T08:51:54.026Z,18.32
2023-12-28T08:52:54.083Z,19.82
2023-12-28T08:53:54.189Z,21.05
2023-12-28T08:54:54.318Z,22.02
2023-12-28T08:55:54.354Z,22.93
2023-12-28T08:56:55.988Z,23.10
2023-12-28T08:57:54.546Z,24.12
2023-12-28T08:58:54.593Z,24.65
2023-12-28T08:59:54.687Z,25.08
2023-12-28T09:00:54.814Z,25.41
2023-12-28T09:01:54.946Z,6.71
2023-12-28T09:02:55.059Z,6.66
2023-12-28T09:03:55.102Z,6.71
2023-12-28T09:04:55.116Z,6.88
2023-12-28T09:05:55.250Z,6.98
2023-12-28T09:06:55.337Z,7.36
2023-12-28T09:07:56.883Z,10.80
2023-12-28T09:08:55.476Z,6.34
2023-12-28T09:09:55.618Z,7.41
2023-12-28T09:10:55.709Z,7.25
2023-12-28T09:11:55.717Z,6.77
2023-12-28T09:12:55.892Z,6.61
2023-12-28T09:13:55.953Z,6.45
2023-12-28T09:14:55.981Z,8.22
2023-12-28T09:15:56.099Z,7.20
2023-12-28T09:16:56.122Z,6.98
2023-12-28T09:17:56.442Z,6.88
2023-12-28T09:18:56.409Z,6.61
2023-12-28T09:19:56.433Z,6.55
2023-12-28T09:20:56.447Z,6.93
2023-12-28T09:21:56.550Z,8.81
2023-12-28T09:22:56.611Z,8.00
2023-12-28T09:23:56.706Z,6.98
2023-12-28T09:24:56.790Z,7.73
2023-12-28T09:25:56.863Z,8.75
2023-12-28T09:26:56.941Z,6.61
2023-12-28T09:27:57.525Z,6.50
2023-12-28T09:28:57.086Z,7.52
2023-12-28T09:29:57.171Z,6.50
2023-12-28T09:30:58.149Z,7.30
2023-12-28T09:31:57.389Z,7.25
2023-12-28T09:32:57.767Z,12.25
2023-12-28T09:33:57.571Z,6.55
2023-12-28T09:34:57.678Z,8.38
2023-12-28T09:35:57.679Z,7.68
2023-12-28T09:36:58.588Z,6.88
2023-12-28T09:37:58.035Z,7.73
2023-12-28T09:38:57.892Z,11.66
2023-12-28T09:39:58.133Z,6.77
2023-12-28T09:40:58.043Z,7.09
2023-12-28T09:41:58.123Z,6.61
2023-12-28T09:42:58.750Z,7.84
2023-12-28T09:43:58.417Z,6.61
2023-12-28T09:44:58.375Z,6.77
2023-12-28T09:45:58.530Z,7.84
2023-12-28T09:46:58.601Z,9.35
2023-12-28T09:47:58.653Z,7.90
2023-12-28T09:48:58.838Z,7.47
2023-12-28T09:49:58.842Z,8.43
2023-12-28T09:50:58.882Z,9.02
2023-12-28T09:51:59.012Z,8.70
2023-12-28T09:52:59.407Z,6.98
2023-12-28T09:53:59.155Z,10.96
2023-12-28T09:54:59.293Z,8.22
2023-12-28T09:55:59.300Z,9.40
2023-12-28T09:57:00.098Z,10.53
2023-12-28T09:57:59.469Z,12.19
2023-12-28T09:58:59.533Z,14.82
2023-12-28T09:59:59.633Z,10.69
2023-12-28T10:00:59.751Z,11.55
2023-12-28T10:01:59.777Z,9.29
2023-12-28T10:03:00.225Z,11.23
2023-12-28T10:04:00.014Z,14.45
2023-12-28T10:05:00.060Z,9.29
2023-12-28T10:06:00.971Z,7.90
2023-12-28T10:07:00.322Z,8.92
2023-12-28T10:08:00.246Z,9.45
2023-12-28T10:09:00.318Z,6.55
2023-12-28T10:10:00.512Z,6.45
2023-12-28T10:11:00.490Z,6.45
2023-12-28T10:12:00.609Z,7.04
2023-12-28T10:13:00.902Z,6.50
2023-12-28T10:14:00.760Z,8.54
2023-12-28T10:15:00.840Z,6.39
2023-12-28T10:16:01.010Z,6.82
2023-12-28T10:17:01.000Z,7.57
2023-12-28T10:18:01.110Z,7.36
2023-12-28T10:19:01.243Z,7.36
2023-12-28T10:20:01.349Z,6.45
2023-12-28T10:21:01.315Z,6.88
2023-12-28T10:22:01.499Z,6.61
2023-12-28T10:23:01.717Z,6.45
2023-12-28T10:24:01.582Z,6.50
2023-12-28T10:25:01.661Z,9.88
2023-12-28T10:26:01.715Z,6.50
2023-12-28T10:27:01.814Z,6.18
2023-12-28T10:28:01.941Z,6.61
2023-12-28T10:29:01.969Z,6.45
2023-12-28T10:30:02.057Z,9.78
2023-12-28T10:31:02.197Z,10.26
2023-12-28T10:32:03.198Z,7.95
2023-12-28T10:33:02.932Z,8.43
2023-12-28T10:34:02.490Z,12.41
2023-12-28T10:35:02.468Z,15.15
2023-12-28T10:36:02.541Z,17.35
2023-12-28T10:37:02.699Z,9.18
2023-12-28T10:38:02.702Z,7.79
2023-12-28T10:39:02.803Z,9.29
2023-12-28T10:40:02.926Z,6.66
2023-12-28T10:41:02.946Z,6.66
2023-12-28T10:42:03.031Z,11.01
2023-12-28T10:43:04.420Z,10.42
2023-12-28T10:44:04.869Z,7.30
2023-12-28T10:45:03.325Z,6.82
2023-12-28T10:46:03.397Z,7.47
2023-12-28T10:47:03.435Z,6.45
2023-12-28T10:48:03.621Z,6.50
2023-12-28T10:49:03.710Z,6.77
2023-12-28T10:50:04.072Z,8.65
2023-12-28T10:51:03.885Z,7.52
2023-12-28T10:52:03.952Z,9.88
2023-12-28T10:53:04.014Z,13.27
2023-12-28T10:54:04.062Z,15.84
2023-12-28T10:55:04.186Z,5.21
2023-12-28T10:56:04.208Z,9.78
2023-12-28T10:57:04.320Z,13.16
2023-12-28T10:58:04.473Z,15.79
2023-12-28T10:59:04.446Z,17.94
2023-12-28T11:00:04.543Z,6.55
2023-12-28T11:01:04.743Z,6.61
2023-12-28T11:02:07.951Z,6.39
2023-12-28T11:03:04.885Z,6.39
2023-12-28T11:04:04.888Z,6.45
2023-12-28T11:05:04.994Z,6.88
2023-12-28T11:06:04.995Z,8.06
2023-12-28T11:07:05.133Z,6.39
2023-12-28T11:08:05.211Z,6.39
2023-12-28T11:09:06.344Z,6.39
2023-12-28T11:10:05.381Z,6.34
2023-12-28T11:11:05.412Z,6.39
2023-12-28T11:12:05.491Z,6.12
2023-12-28T11:13:05.670Z,6.34
2023-12-28T11:14:05.674Z,6.77
2023-12-28T11:15:07.617Z,6.39
2023-12-28T11:16:05.865Z,6.34
2023-12-28T11:17:05.945Z,6.45
2023-12-28T11:18:06.501Z,5.69
2023-12-28T11:19:06.192Z,6.45
2023-12-28T11:20:06.166Z,6.45
2023-12-28T11:21:07.754Z,6.28
2023-12-28T11:22:06.351Z,6.39
2023-12-28T11:23:06.444Z,6.45
2023-12-28T11:24:06.516Z,6.39
2023-12-28T11:25:06.610Z,6.71
2023-12-28T11:26:06.699Z,6.50
2023-12-28T11:27:09.065Z,6.45
2023-12-28T11:28:06.882Z,6.45
2023-12-28T11:29:06.935Z,6.39
2023-12-28T11:30:07.104Z,6.39
2023-12-28T11:31:07.171Z,6.61
2023-12-28T11:32:07.201Z,7.41
2023-12-28T11:33:07.325Z,6.55
2023-12-28T11:34:08.703Z,7.68
2023-12-28T11:35:07.385Z,7.79
2023-12-28T11:36:07.476Z,7.14
2023-12-28T11:37:07.563Z,9.45
2023-12-28T11:38:07.627Z,11.01
2023-12-28T11:39:07.664Z,14.29
2023-12-28T11:40:07.767Z,16.81
2023-12-28T11:41:07.840Z,17.72
2023-12-28T11:42:07.889Z,19.55
2023-12-28T11:43:08.078Z,20.95
2023-12-28T11:44:08.093Z,17.13
2023-12-28T11:45:08.171Z,12.84
2023-12-28T11:46:08.321Z,15.25
2023-12-28T11:47:08.289Z,17.78
2023-12-28T11:48:08.451Z,18.32
2023-12-28T11:49:08.728Z,19.28
2023-12-28T11:50:08.572Z,20.89
2023-12-28T11:51:08.722Z,22.02
2023-12-28T11:52:08.749Z,22.88
2023-12-28T11:53:08.809Z,23.63
2023-12-28T11:54:08.870Z,24.28
2023-12-28T11:55:09.007Z,24.76
2023-12-28T11:56:09.036Z,25.14
2023-12-28T11:57:09.185Z,25.57
2023-12-28T11:58:11.100Z,25.78
2023-12-28T11:59:09.332Z,26.05
2023-12-28T12:00:09.952Z,26.26
2023-12-28T12:01:09.495Z,7.04
2023-12-28T12:02:09.522Z,10.53
2023-12-28T12:03:09.636Z,14.02
2023-12-28T12:04:09.755Z,16.70
2023-12-28T12:05:09.719Z,8.59
2023-12-28T12:06:09.846Z,8.33
2023-12-28T12:07:09.969Z,12.68
2023-12-28T12:08:09.960Z,9.56
2023-12-28T12:09:10.012Z,9.99
2023-12-28T12:10:10.162Z,13.80
2023-12-28T12:11:10.146Z,15.58
2023-12-28T12:12:10.272Z,13.48
2023-12-28T12:13:10.441Z,15.95
2023-12-28T12:14:10.425Z,16.70
2023-12-28T12:15:10.497Z,15.68
2023-12-28T12:16:10.718Z,12.62
2023-12-28T12:17:10.657Z,14.99
2023-12-28T12:18:10.840Z,16.92
2023-12-28T12:19:10.924Z,11.12
2023-12-28T12:20:10.949Z,9.83
2023-12-28T12:21:11.021Z,13.64
2023-12-28T12:22:11.057Z,16.49
2023-12-28T12:23:11.186Z,18.69
2023-12-28T12:24:11.254Z,20.36
2023-12-28T12:25:11.294Z,6.34
2023-12-28T12:26:11.372Z,6.34
2023-12-28T12:27:11.442Z,6.34
2023-12-28T12:28:11.552Z,6.34
2023-12-28T12:29:11.635Z,6.39
2023-12-28T12:30:11.683Z,6.34
2023-12-28T12:31:11.866Z,6.28
2023-12-28T12:32:11.840Z,6.34
2023-12-28T12:33:11.997Z,6.34
2023-12-28T12:34:12.152Z,6.34
2023-12-28T12:35:13.070Z,6.45
2023-12-28T12:36:12.163Z,6.61
2023-12-28T12:37:12.368Z,6.34
2023-12-28T12:38:12.367Z,6.34
2023-12-28T12:39:12.410Z,6.45
2023-12-28T12:40:14.691Z,6.34
2023-12-28T12:41:12.555Z,6.28
2023-12-28T12:42:12.634Z,6.34
2023-12-28T12:43:12.827Z,6.28
2023-12-28T12:44:12.796Z,6.28
2023-12-28T12:45:12.889Z,6.34
2023-12-28T12:46:13.021Z,6.39
2023-12-28T12:47:13.065Z,6.34
2023-12-28T12:48:13.140Z,6.34
2023-12-28T12:49:13.333Z,6.34
2023-12-28T12:50:13.313Z,6.28
2023-12-28T12:51:13.370Z,6.28
2023-12-28T12:52:13.597Z,6.28
2023-12-28T12:53:13.521Z,6.34
2023-12-28T12:54:13.600Z,6.23
2023-12-28T12:55:13.711Z,7.84
2023-12-28T12:56:13.753Z,7.84
2023-12-28T12:57:13.927Z,6.39
2023-12-28T12:58:14.165Z,6.34
2023-12-28T12:59:14.035Z,6.66
2023-12-28T13:00:14.127Z,6.28
2023-12-28T13:01:14.300Z,6.28
2023-12-28T13:02:14.277Z,6.28
2023-12-28T13:03:14.414Z,6.28
2023-12-28T13:04:14.569Z,6.28
2023-12-28T13:05:14.621Z,6.28
2023-12-28T13:06:14.623Z,6.39
2023-12-28T13:07:14.709Z,6.23
2023-12-28T13:08:14.963Z,6.39
2023-12-28T13:09:15.041Z,6.71
2023-12-28T13:10:15.049Z,6.61
2023-12-28T13:11:15.014Z,6.28
2023-12-28T13:12:15.094Z,6.34
2023-12-28T13:13:15.274Z,7.73
2023-12-28T13:14:15.291Z,6.28
2023-12-28T13:15:15.379Z,6.28
2023-12-28T13:16:15.479Z,6.82